aviador You're here:

PAHP Decoded Metar

HOOPER BAY in AK, USA
Report Time2017-11-20 20:56:00
UTC Time2017-11-20 21:17:25
Flight Rules vfr VFR
Wind120° at 14 kt
W.Decomp.*RWY 13: 12.9 kt HW 5.5 kt LCW
W.Rank120° ranks 18
Current wind is above 120° avg. (13.0)
Visibility9999 m
Phenomena:N/A
Clouds:N/A
Expected CloudBase > 1,200 ft AGL from Temp-Dew spread
CeilingNone
Temp-6°C (ISA -21)
Dew Point-9°C (80% RH)
AAT-14.0°C
QNH1020 hPa
Density Alt-2,779 ft
Elevation16 ft
Report Wrong Elevation
Raw Report
PAHP 202056Z AUTO 12014KT 10SM CLR M06/M09 A3012 RMK AO2 SLP236
T10561089 56030 FZRANO=

Extra information for PAHP:More info

Metar Taf Metar & Taf Last 4 Metars F.Rules Stats Wind Profile Meteogram Temp Stats Airport Information Weather charts Add Link Nearby VenuesMetar ALERT Operation Metar Decoded Social comments

AIRNAV info for PAHP